Kezdőlap
METAR-TAF:

METAR-TAF

Repülőterek :

Taskent, Üzbegisztán

földrajzi szélesség: 41-16N, földrajzi hosszúság: 069-16E, magasság: 489 m

Jelenlegi meteorológiai megfigyelések

A jelentés 49 perccel ezelõtt készült, 14:00 UTC
Szélcsend
Hőmérséklet 15°C
Páratartalom 44%
Légköri nyomás 1022 hPa
Látótávolság: 4000 m
füst

METAR: UTTT 211400Z 00000KT 4000 FU NSC 15/03 Q1022 R26R/CLRD70 NOSIG

Idő: 19:49 (14:49 UTC)

Előrejelzés

A jelentés 3 órával és 49 perccel ezelõtt készült, 11:00 UTC
Az előrejelzés 21-én 12 óra UTC és 22-én 12 óra UTC között érvényes
Kelet-északkeleti szél 8 kt
Látótávolság: 7000 m
21-én 12 óra UTC és 21-én 20 óra UTC között ideiglenes
Nyugat-északnyugati szél 10 kt

TAF: UTTT 211100Z 2112/2212 07008KT 7000 NSC TEMPO 2112/2120 30010KT

Meteorológiai megfigyelések és előrejelzések több, mint 4000 repülőtéren (METAR és TAF jelentéseket).

A térképen piros és sárga pontok jelzik az elérhető meteorológiai állomásokat.

Mozgassa az egeret a pont fölött, hogy megjelenjen az állomás neve.

Azután kattintson az időjárási megfigyelések és előrejelzések megtekintéséhez.

A térkép megváltoztatása: kattintson a fekete keresztel jelölt zöld gombra ráközelítéshez, a vonallal jelölt zöld gombra távolításhoz, vagy a zöld nyilakra a szomszédos térképek eléréséhez.


METAR-TAF: